sensor_id;sensor_type;location;lat;lon;timestamp;P1;durP1;ratioP1;P2;durP2;ratioP2
34982;SDS011;21187;50.976;13.720;2024-01-30T00:00:43;29.33;;;10.55;;
34982;SDS011;21187;50.976;13.720;2024-01-30T00:05:45;22.83;;;8.77;;
34982;SDS011;21187;50.976;13.720;2024-01-30T00:10:46;24.00;;;9.65;;
34982;SDS011;21187;50.976;13.720;2024-01-30T00:15:49;24.88;;;9.35;;
34982;SDS011;21187;50.976;13.720;2024-01-30T00:20:51;22.02;;;8.93;;
34982;SDS011;21187;50.976;13.720;2024-01-30T00:25:53;26.58;;;10.10;;
34982;SDS011;21187;50.976;13.720;2024-01-30T00:30:54;28.58;;;11.13;;
34982;SDS011;21187;50.976;13.720;2024-01-30T00:35:56;23.70;;;10.25;;
34982;SDS011;21187;50.976;13.720;2024-01-30T00:40:58;31.38;;;10.43;;
34982;SDS011;21187;50.976;13.720;2024-01-30T00:46:00;25.40;;;10.43;;
34982;SDS011;21187;50.976;13.720;2024-01-30T00:51:02;30.25;;;10.60;;
34982;SDS011;21187;50.976;13.720;2024-01-30T00:56:04;28.02;;;10.60;;
34982;SDS011;21187;50.976;13.720;2024-01-30T01:01:06;31.73;;;11.27;;
34982;SDS011;21187;50.976;13.720;2024-01-30T01:06:09;27.63;;;11.45;;
34982;SDS011;21187;50.976;13.720;2024-01-30T01:11:11;28.95;;;10.35;;
34982;SDS011;21187;50.976;13.720;2024-01-30T01:16:13;28.10;;;9.93;;
34982;SDS011;21187;50.976;13.720;2024-01-30T01:21:15;22.38;;;9.73;;
34982;SDS011;21187;50.976;13.720;2024-01-30T01:26:17;27.65;;;10.80;;
34982;SDS011;21187;50.976;13.720;2024-01-30T01:31:19;27.38;;;10.15;;
34982;SDS011;21187;50.976;13.720;2024-01-30T01:36:24;27.02;;;9.80;;
34982;SDS011;21187;50.976;13.720;2024-01-30T01:41:29;20.40;;;8.98;;
34982;SDS011;21187;50.976;13.720;2024-01-30T01:46:33;23.33;;;10.30;;
34982;SDS011;21187;50.976;13.720;2024-01-30T01:51:35;25.75;;;11.25;;
34982;SDS011;21187;50.976;13.720;2024-01-30T01:56:38;26.98;;;10.88;;
34982;SDS011;21187;50.976;13.720;2024-01-30T02:01:40;29.33;;;11.32;;
34982;SDS011;21187;50.976;13.720;2024-01-30T02:06:43;29.30;;;10.30;;
34982;SDS011;21187;50.976;13.720;2024-01-30T02:11:45;32.88;;;10.73;;
34982;SDS011;21187;50.976;13.720;2024-01-30T02:16:47;35.10;;;11.27;;
34982;SDS011;21187;50.976;13.720;2024-01-30T02:21:49;26.08;;;11.15;;
34982;SDS011;21187;50.976;13.720;2024-01-30T02:26:51;35.53;;;11.27;;
34982;SDS011;21187;50.976;13.720;2024-01-30T02:31:53;25.98;;;11.52;;
34982;SDS011;21187;50.976;13.720;2024-01-30T02:36:55;30.27;;;11.63;;
34982;SDS011;21187;50.976;13.720;2024-01-30T02:41:57;31.08;;;11.18;;
34982;SDS011;21187;50.976;13.720;2024-01-30T02:46:59;27.60;;;11.65;;
34982;SDS011;21187;50.976;13.720;2024-01-30T02:52:01;29.90;;;11.80;;
34982;SDS011;21187;50.976;13.720;2024-01-30T02:57:03;24.00;;;10.93;;
34982;SDS011;21187;50.976;13.720;2024-01-30T03:02:05;32.30;;;11.63;;
34982;SDS011;21187;50.976;13.720;2024-01-30T03:07:07;31.50;;;12.65;;
34982;SDS011;21187;50.976;13.720;2024-01-30T03:12:09;26.38;;;12.75;;
34982;SDS011;21187;50.976;13.720;2024-01-30T03:17:12;38.53;;;12.73;;
34982;SDS011;21187;50.976;13.720;2024-01-30T03:22:13;30.88;;;12.43;;
34982;SDS011;21187;50.976;13.720;2024-01-30T03:27:15;30.58;;;12.30;;
34982;SDS011;21187;50.976;13.720;2024-01-30T03:32:17;33.30;;;12.35;;
34982;SDS011;21187;50.976;13.720;2024-01-30T03:37:19;27.52;;;12.15;;
34982;SDS011;21187;50.976;13.720;2024-01-30T03:42:21;33.05;;;12.98;;
34982;SDS011;21187;50.976;13.720;2024-01-30T03:47:24;32.00;;;12.30;;
34982;SDS011;21187;50.976;13.720;2024-01-30T03:52:26;33.75;;;12.50;;
34982;SDS011;21187;50.976;13.720;2024-01-30T03:57:28;37.15;;;13.27;;
34982;SDS011;21187;50.976;13.720;2024-01-30T04:02:29;28.08;;;12.00;;
34982;SDS011;21187;50.976;13.720;2024-01-30T04:07:32;31.42;;;12.88;;
34982;SDS011;21187;50.976;13.720;2024-01-30T04:12:33;26.77;;;12.15;;
34982;SDS011;21187;50.976;13.720;2024-01-30T04:17:35;30.48;;;12.35;;
34982;SDS011;21187;50.976;13.720;2024-01-30T04:22:37;29.13;;;12.02;;
34982;SDS011;21187;50.976;13.720;2024-01-30T04:27:39;28.60;;;12.05;;
34982;SDS011;21187;50.976;13.720;2024-01-30T04:32:41;35.13;;;13.88;;
34982;SDS011;21187;50.976;13.720;2024-01-30T04:37:44;32.55;;;12.30;;
34982;SDS011;21187;50.976;13.720;2024-01-30T04:42:46;33.97;;;12.55;;
34982;SDS011;21187;50.976;13.720;2024-01-30T04:47:48;32.60;;;12.88;;
34982;SDS011;21187;50.976;13.720;2024-01-30T04:52:50;34.90;;;13.05;;
34982;SDS011;21187;50.976;13.720;2024-01-30T04:57:52;33.65;;;13.15;;
34982;SDS011;21187;50.976;13.720;2024-01-30T05:02:57;32.35;;;12.30;;
34982;SDS011;21187;50.976;13.720;2024-01-30T05:07:59;32.88;;;12.85;;
34982;SDS011;21187;50.976;13.720;2024-01-30T05:13:00;28.65;;;11.98;;
34982;SDS011;21187;50.976;13.720;2024-01-30T05:18:02;38.88;;;13.23;;
34982;SDS011;21187;50.976;13.720;2024-01-30T05:23:05;29.45;;;11.35;;
34982;SDS011;21187;50.976;13.720;2024-01-30T05:28:07;26.58;;;12.32;;
34982;SDS011;21187;50.976;13.720;2024-01-30T05:33:09;30.08;;;11.85;;
34982;SDS011;21187;50.976;13.720;2024-01-30T05:38:14;29.67;;;12.77;;
34982;SDS011;21187;50.976;13.720;2024-01-30T05:43:17;31.67;;;13.07;;
34982;SDS011;21187;50.976;13.720;2024-01-30T05:48:20;33.00;;;11.80;;
34982;SDS011;21187;50.976;13.720;2024-01-30T05:53:21;31.58;;;11.63;;
34982;SDS011;21187;50.976;13.720;2024-01-30T05:58:24;32.33;;;12.00;;
34982;SDS011;21187;50.976;13.720;2024-01-30T06:03:26;24.95;;;11.43;;
34982;SDS011;21187;50.976;13.720;2024-01-30T06:08:28;33.78;;;12.52;;
34982;SDS011;21187;50.976;13.720;2024-01-30T06:13:30;32.75;;;10.77;;
34982;SDS011;21187;50.976;13.720;2024-01-30T06:18:33;30.10;;;11.73;;
34982;SDS011;21187;50.976;13.720;2024-01-30T06:23:35;29.65;;;11.63;;
34982;SDS011;21187;50.976;13.720;2024-01-30T06:28:37;34.05;;;12.30;;
34982;SDS011;21187;50.976;13.720;2024-01-30T06:33:39;27.60;;;11.82;;
34982;SDS011;21187;50.976;13.720;2024-01-30T06:38:44;24.17;;;9.77;;
34982;SDS011;21187;50.976;13.720;2024-01-30T06:43:46;29.20;;;10.90;;
34982;SDS011;21187;50.976;13.720;2024-01-30T06:48:48;40.97;;;12.57;;
34982;SDS011;21187;50.976;13.720;2024-01-30T06:53:51;32.83;;;11.63;;
34982;SDS011;21187;50.976;13.720;2024-01-30T06:58:53;28.90;;;11.90;;
34982;SDS011;21187;50.976;13.720;2024-01-30T07:03:55;29.02;;;12.10;;
34982;SDS011;21187;50.976;13.720;2024-01-30T07:08:57;26.15;;;11.98;;
34982;SDS011;21187;50.976;13.720;2024-01-30T07:13:59;32.33;;;12.10;;
34982;SDS011;21187;50.976;13.720;2024-01-30T07:19:01;31.70;;;12.38;;
34982;SDS011;21187;50.976;13.720;2024-01-30T07:24:04;29.23;;;11.60;;
34982;SDS011;21187;50.976;13.720;2024-01-30T07:29:06;29.58;;;11.48;;
34982;SDS011;21187;50.976;13.720;2024-01-30T07:34:09;32.75;;;11.57;;
34982;SDS011;21187;50.976;13.720;2024-01-30T07:39:11;29.70;;;11.18;;
34982;SDS011;21187;50.976;13.720;2024-01-30T07:44:13;21.92;;;9.88;;
34982;SDS011;21187;50.976;13.720;2024-01-30T07:49:15;28.65;;;10.50;;
34982;SDS011;21187;50.976;13.720;2024-01-30T07:54:17;25.63;;;11.50;;
34982;SDS011;21187;50.976;13.720;2024-01-30T07:59:19;24.45;;;10.73;;
34982;SDS011;21187;50.976;13.720;2024-01-30T08:04:23;26.77;;;10.60;;
34982;SDS011;21187;50.976;13.720;2024-01-30T08:09:25;30.30;;;10.20;;
34982;SDS011;21187;50.976;13.720;2024-01-30T08:14:27;26.27;;;9.20;;
34982;SDS011;21187;50.976;13.720;2024-01-30T08:19:29;20.98;;;9.40;;
34982;SDS011;21187;50.976;13.720;2024-01-30T08:24:31;23.55;;;10.68;;
34982;SDS011;21187;50.976;13.720;2024-01-30T08:29:33;18.67;;;8.95;;
34982;SDS011;21187;50.976;13.720;2024-01-30T08:34:35;27.23;;;9.90;;
34982;SDS011;21187;50.976;13.720;2024-01-30T08:39:37;21.00;;;9.40;;
34982;SDS011;21187;50.976;13.720;2024-01-30T08:44:39;21.42;;;9.30;;
34982;SDS011;21187;50.976;13.720;2024-01-30T08:49:41;21.73;;;9.40;;
34982;SDS011;21187;50.976;13.720;2024-01-30T08:54:45;22.05;;;8.95;;
34982;SDS011;21187;50.976;13.720;2024-01-30T08:59:47;23.38;;;9.10;;
34982;SDS011;21187;50.976;13.720;2024-01-30T09:04:49;22.48;;;7.50;;
34982;SDS011;21187;50.976;13.720;2024-01-30T09:09:51;20.52;;;8.13;;
34982;SDS011;21187;50.976;13.720;2024-01-30T09:14:53;17.20;;;8.40;;
34982;SDS011;21187;50.976;13.720;2024-01-30T09:19:56;17.83;;;7.95;;
34982;SDS011;21187;50.976;13.720;2024-01-30T09:24:58;20.02;;;9.00;;
34982;SDS011;21187;50.976;13.720;2024-01-30T09:30:01;17.58;;;7.95;;
34982;SDS011;21187;50.976;13.720;2024-01-30T09:35:03;17.70;;;7.85;;
34982;SDS011;21187;50.976;13.720;2024-01-30T09:40:05;20.52;;;8.18;;
34982;SDS011;21187;50.976;13.720;2024-01-30T09:45:08;20.92;;;8.77;;
34982;SDS011;21187;50.976;13.720;2024-01-30T09:50:14;17.42;;;8.75;;
34982;SDS011;21187;50.976;13.720;2024-01-30T09:55:17;18.95;;;8.15;;
34982;SDS011;21187;50.976;13.720;2024-01-30T10:00:19;18.42;;;7.93;;
34982;SDS011;21187;50.976;13.720;2024-01-30T10:05:21;23.00;;;9.18;;
34982;SDS011;21187;50.976;13.720;2024-01-30T10:10:28;20.88;;;8.48;;
34982;SDS011;21187;50.976;13.720;2024-01-30T10:15:30;20.45;;;8.95;;
34982;SDS011;21187;50.976;13.720;2024-01-30T10:20:32;15.10;;;7.72;;
34982;SDS011;21187;50.976;13.720;2024-01-30T10:25:35;21.83;;;9.73;;
34982;SDS011;21187;50.976;13.720;2024-01-30T10:30:37;25.00;;;9.27;;
34982;SDS011;21187;50.976;13.720;2024-01-30T10:35:39;24.27;;;9.18;;
34982;SDS011;21187;50.976;13.720;2024-01-30T10:40:41;20.63;;;9.27;;
34982;SDS011;21187;50.976;13.720;2024-01-30T10:45:45;22.48;;;9.32;;
34982;SDS011;21187;50.976;13.720;2024-01-30T10:50:51;24.33;;;9.68;;
34982;SDS011;21187;50.976;13.720;2024-01-30T10:56:02;23.70;;;9.18;;
34982;SDS011;21187;50.976;13.720;2024-01-30T11:01:06;20.88;;;8.68;;
34982;SDS011;21187;50.976;13.720;2024-01-30T11:06:12;23.05;;;9.70;;
34982;SDS011;21187;50.976;13.720;2024-01-30T11:11:19;18.85;;;8.88;;
34982;SDS011;21187;50.976;13.720;2024-01-30T11:16:22;20.02;;;8.23;;
34982;SDS011;21187;50.976;13.720;2024-01-30T11:21:25;21.65;;;8.68;;
34982;SDS011;21187;50.976;13.720;2024-01-30T11:26:30;21.70;;;9.98;;
34982;SDS011;21187;50.976;13.720;2024-01-30T11:31:33;30.38;;;12.27;;
34982;SDS011;21187;50.976;13.720;2024-01-30T11:36:35;22.73;;;8.95;;
34982;SDS011;21187;50.976;13.720;2024-01-30T11:41:39;20.83;;;8.15;;
34982;SDS011;21187;50.976;13.720;2024-01-30T11:46:42;17.67;;;8.02;;
34982;SDS011;21187;50.976;13.720;2024-01-30T11:51:47;25.15;;;9.73;;
34982;SDS011;21187;50.976;13.720;2024-01-30T11:56:51;22.15;;;8.85;;
34982;SDS011;21187;50.976;13.720;2024-01-30T12:01:53;23.02;;;10.05;;
34982;SDS011;21187;50.976;13.720;2024-01-30T12:06:55;25.08;;;10.25;;
34982;SDS011;21187;50.976;13.720;2024-01-30T12:11:58;24.45;;;9.88;;
34982;SDS011;21187;50.976;13.720;2024-01-30T12:16:59;20.25;;;9.13;;
34982;SDS011;21187;50.976;13.720;2024-01-30T12:22:01;23.90;;;10.57;;
34982;SDS011;21187;50.976;13.720;2024-01-30T12:27:04;27.83;;;11.27;;
34982;SDS011;21187;50.976;13.720;2024-01-30T12:32:06;24.55;;;10.45;;
34982;SDS011;21187;50.976;13.720;2024-01-30T12:37:08;24.65;;;10.25;;
34982;SDS011;21187;50.976;13.720;2024-01-30T12:42:11;27.33;;;10.15;;
34982;SDS011;21187;50.976;13.720;2024-01-30T12:47:13;22.70;;;9.23;;
34982;SDS011;21187;50.976;13.720;2024-01-30T12:52:17;21.38;;;9.65;;
34982;SDS011;21187;50.976;13.720;2024-01-30T12:57:19;31.65;;;12.80;;
34982;SDS011;21187;50.976;13.720;2024-01-30T13:02:21;25.67;;;10.05;;
34982;SDS011;21187;50.976;13.720;2024-01-30T13:07:24;18.67;;;8.60;;
34982;SDS011;21187;50.976;13.720;2024-01-30T13:12:26;22.00;;;9.32;;
34982;SDS011;21187;50.976;13.720;2024-01-30T13:17:28;23.35;;;10.43;;
34982;SDS011;21187;50.976;13.720;2024-01-30T13:22:30;21.92;;;8.93;;
34982;SDS011;21187;50.976;13.720;2024-01-30T13:27:32;23.23;;;10.15;;
34982;SDS011;21187;50.976;13.720;2024-01-30T13:32:34;22.50;;;10.15;;
34982;SDS011;21187;50.976;13.720;2024-01-30T13:37:37;22.00;;;10.35;;
34982;SDS011;21187;50.976;13.720;2024-01-30T13:42:39;21.70;;;11.00;;
34982;SDS011;21187;50.976;13.720;2024-01-30T13:47:41;23.73;;;10.95;;
34982;SDS011;21187;50.976;13.720;2024-01-30T13:52:43;26.83;;;10.60;;
34982;SDS011;21187;50.976;13.720;2024-01-30T13:57:46;24.60;;;10.38;;
34982;SDS011;21187;50.976;13.720;2024-01-30T14:02:52;24.08;;;9.55;;
34982;SDS011;21187;50.976;13.720;2024-01-30T14:07:58;23.58;;;10.20;;
34982;SDS011;21187;50.976;13.720;2024-01-30T14:13:01;24.15;;;11.85;;
34982;SDS011;21187;50.976;13.720;2024-01-30T14:18:04;22.83;;;10.65;;
34982;SDS011;21187;50.976;13.720;2024-01-30T14:23:06;22.35;;;10.65;;
34982;SDS011;21187;50.976;13.720;2024-01-30T14:28:08;23.17;;;10.45;;
34982;SDS011;21187;50.976;13.720;2024-01-30T14:33:10;25.95;;;10.35;;
34982;SDS011;21187;50.976;13.720;2024-01-30T14:38:13;22.40;;;10.48;;
34982;SDS011;21187;50.976;13.720;2024-01-30T14:43:15;22.58;;;10.75;;
34982;SDS011;21187;50.976;13.720;2024-01-30T14:48:17;29.83;;;10.73;;
34982;SDS011;21187;50.976;13.720;2024-01-30T14:53:19;27.55;;;10.82;;
34982;SDS011;21187;50.976;13.720;2024-01-30T14:58:21;24.48;;;10.75;;
34982;SDS011;21187;50.976;13.720;2024-01-30T15:03:23;27.33;;;11.43;;
34982;SDS011;21187;50.976;13.720;2024-01-30T15:08:29;27.02;;;11.30;;
34982;SDS011;21187;50.976;13.720;2024-01-30T15:13:33;26.00;;;10.95;;
34982;SDS011;21187;50.976;13.720;2024-01-30T15:18:35;25.77;;;11.15;;
34982;SDS011;21187;50.976;13.720;2024-01-30T15:23:37;25.95;;;11.38;;
34982;SDS011;21187;50.976;13.720;2024-01-30T15:28:38;30.17;;;11.80;;
34982;SDS011;21187;50.976;13.720;2024-01-30T15:33:41;28.65;;;12.02;;
34982;SDS011;21187;50.976;13.720;2024-01-30T15:38:44;33.10;;;12.00;;
34982;SDS011;21187;50.976;13.720;2024-01-30T15:43:45;29.98;;;11.18;;
34982;SDS011;21187;50.976;13.720;2024-01-30T15:48:47;24.65;;;10.90;;
34982;SDS011;21187;50.976;13.720;2024-01-30T15:53:50;23.80;;;11.48;;
34982;SDS011;21187;50.976;13.720;2024-01-30T15:58:52;30.63;;;13.40;;
34982;SDS011;21187;50.976;13.720;2024-01-30T16:03:54;32.25;;;12.57;;
34982;SDS011;21187;50.976;13.720;2024-01-30T16:08:56;29.00;;;13.32;;
34982;SDS011;21187;50.976;13.720;2024-01-30T16:13:58;26.90;;;12.15;;
34982;SDS011;21187;50.976;13.720;2024-01-30T16:19:00;33.25;;;14.35;;
34982;SDS011;21187;50.976;13.720;2024-01-30T16:24:02;37.33;;;14.80;;
34982;SDS011;21187;50.976;13.720;2024-01-30T16:29:04;39.67;;;14.30;;
34982;SDS011;21187;50.976;13.720;2024-01-30T16:34:07;32.63;;;13.38;;
34982;SDS011;21187;50.976;13.720;2024-01-30T16:39:09;38.72;;;14.93;;
34982;SDS011;21187;50.976;13.720;2024-01-30T16:44:12;32.17;;;13.63;;
34982;SDS011;21187;50.976;13.720;2024-01-30T16:49:15;39.88;;;15.75;;
34982;SDS011;21187;50.976;13.720;2024-01-30T16:54:18;36.17;;;14.90;;
34982;SDS011;21187;50.976;13.720;2024-01-30T16:59:20;42.92;;;14.90;;
34982;SDS011;21187;50.976;13.720;2024-01-30T17:04:22;38.40;;;15.52;;
34982;SDS011;21187;50.976;13.720;2024-01-30T17:09:24;36.45;;;13.50;;
34982;SDS011;21187;50.976;13.720;2024-01-30T17:14:26;39.58;;;13.73;;
34982;SDS011;21187;50.976;13.720;2024-01-30T17:19:30;47.72;;;14.88;;
34982;SDS011;21187;50.976;13.720;2024-01-30T17:24:32;46.25;;;15.30;;
34982;SDS011;21187;50.976;13.720;2024-01-30T17:29:50;52.58;;;17.15;;
34982;SDS011;21187;50.976;13.720;2024-01-30T17:34:52;41.10;;;14.98;;
34982;SDS011;21187;50.976;13.720;2024-01-30T17:39:55;36.53;;;14.57;;
34982;SDS011;21187;50.976;13.720;2024-01-30T17:44:57;37.03;;;14.70;;
34982;SDS011;21187;50.976;13.720;2024-01-30T17:50:00;44.92;;;15.05;;
34982;SDS011;21187;50.976;13.720;2024-01-30T17:55:02;42.63;;;16.48;;
34982;SDS011;21187;50.976;13.720;2024-01-30T18:00:05;53.25;;;19.20;;
34982;SDS011;21187;50.976;13.720;2024-01-30T18:05:10;36.97;;;14.85;;
34982;SDS011;21187;50.976;13.720;2024-01-30T18:10:13;38.55;;;14.93;;
34982;SDS011;21187;50.976;13.720;2024-01-30T18:15:20;43.03;;;14.57;;
34982;SDS011;21187;50.976;13.720;2024-01-30T18:20:23;42.03;;;15.68;;
34982;SDS011;21187;50.976;13.720;2024-01-30T18:25:25;43.20;;;16.20;;
34982;SDS011;21187;50.976;13.720;2024-01-30T18:30:27;50.42;;;16.30;;
34982;SDS011;21187;50.976;13.720;2024-01-30T18:35:30;47.97;;;17.25;;
34982;SDS011;21187;50.976;13.720;2024-01-30T18:40:32;44.30;;;16.55;;
34982;SDS011;21187;50.976;13.720;2024-01-30T18:45:35;50.22;;;18.10;;
34982;SDS011;21187;50.976;13.720;2024-01-30T18:50:37;41.08;;;15.57;;
34982;SDS011;21187;50.976;13.720;2024-01-30T18:55:39;50.58;;;16.42;;
34982;SDS011;21187;50.976;13.720;2024-01-30T19:00:41;44.60;;;17.20;;
34982;SDS011;21187;50.976;13.720;2024-01-30T19:05:48;45.85;;;17.15;;
34982;SDS011;21187;50.976;13.720;2024-01-30T19:10:51;37.90;;;15.68;;
34982;SDS011;21187;50.976;13.720;2024-01-30T19:15:55;65.95;;;27.08;;
34982;SDS011;21187;50.976;13.720;2024-01-30T19:20:58;77.18;;;25.85;;
34982;SDS011;21187;50.976;13.720;2024-01-30T19:26:01;43.13;;;16.27;;
34982;SDS011;21187;50.976;13.720;2024-01-30T19:31:04;40.17;;;15.70;;
34982;SDS011;21187;50.976;13.720;2024-01-30T19:36:07;43.20;;;17.63;;
34982;SDS011;21187;50.976;13.720;2024-01-30T19:41:13;41.28;;;16.20;;
34982;SDS011;21187;50.976;13.720;2024-01-30T19:46:15;45.40;;;17.00;;
34982;SDS011;21187;50.976;13.720;2024-01-30T19:51:18;45.15;;;17.42;;
34982;SDS011;21187;50.976;13.720;2024-01-30T19:56:20;41.63;;;16.83;;
34982;SDS011;21187;50.976;13.720;2024-01-30T20:01:23;44.33;;;15.50;;
34982;SDS011;21187;50.976;13.720;2024-01-30T20:06:26;48.45;;;16.63;;
34982;SDS011;21187;50.976;13.720;2024-01-30T20:11:28;50.17;;;17.75;;
34982;SDS011;21187;50.976;13.720;2024-01-30T20:16:37;44.83;;;16.80;;
34982;SDS011;21187;50.976;13.720;2024-01-30T20:21:40;50.83;;;18.35;;
34982;SDS011;21187;50.976;13.720;2024-01-30T20:26:44;69.05;;;23.55;;
34982;SDS011;21187;50.976;13.720;2024-01-30T20:31:47;44.83;;;17.17;;
34982;SDS011;21187;50.976;13.720;2024-01-30T20:36:49;46.78;;;17.20;;
34982;SDS011;21187;50.976;13.720;2024-01-30T20:41:51;45.05;;;17.50;;
34982;SDS011;21187;50.976;13.720;2024-01-30T20:46:53;45.33;;;17.15;;
34982;SDS011;21187;50.976;13.720;2024-01-30T20:51:56;50.45;;;17.55;;
34982;SDS011;21187;50.976;13.720;2024-01-30T20:56:57;42.13;;;15.65;;
34982;SDS011;21187;50.976;13.720;2024-01-30T21:02:00;47.42;;;16.70;;
34982;SDS011;21187;50.976;13.720;2024-01-30T21:07:01;42.42;;;15.90;;
34982;SDS011;21187;50.976;13.720;2024-01-30T21:12:04;44.53;;;16.25;;
34982;SDS011;21187;50.976;13.720;2024-01-30T21:17:06;50.15;;;16.40;;
34982;SDS011;21187;50.976;13.720;2024-01-30T21:22:08;45.90;;;15.95;;
34982;SDS011;21187;50.976;13.720;2024-01-30T21:27:10;55.75;;;16.98;;
34982;SDS011;21187;50.976;13.720;2024-01-30T21:32:12;43.08;;;16.13;;
34982;SDS011;21187;50.976;13.720;2024-01-30T21:37:14;44.65;;;15.52;;
34982;SDS011;21187;50.976;13.720;2024-01-30T21:42:17;41.15;;;16.30;;
34982;SDS011;21187;50.976;13.720;2024-01-30T21:47:21;42.28;;;15.45;;
34982;SDS011;21187;50.976;13.720;2024-01-30T21:52:23;48.47;;;15.15;;
34982;SDS011;21187;50.976;13.720;2024-01-30T21:57:25;46.95;;;14.93;;
34982;SDS011;21187;50.976;13.720;2024-01-30T22:02:27;39.42;;;15.45;;
34982;SDS011;21187;50.976;13.720;2024-01-30T22:07:29;40.83;;;15.15;;
34982;SDS011;21187;50.976;13.720;2024-01-30T22:12:31;36.55;;;14.25;;
34982;SDS011;21187;50.976;13.720;2024-01-30T22:17:33;40.47;;;16.02;;
34982;SDS011;21187;50.976;13.720;2024-01-30T22:22:35;43.13;;;15.13;;
34982;SDS011;21187;50.976;13.720;2024-01-30T22:27:37;36.38;;;14.00;;
34982;SDS011;21187;50.976;13.720;2024-01-30T22:32:42;42.05;;;14.98;;
34982;SDS011;21187;50.976;13.720;2024-01-30T22:37:44;42.58;;;15.57;;
34982;SDS011;21187;50.976;13.720;2024-01-30T22:42:46;43.63;;;15.85;;
34982;SDS011;21187;50.976;13.720;2024-01-30T22:47:48;36.95;;;14.73;;
34982;SDS011;21187;50.976;13.720;2024-01-30T22:52:51;39.42;;;14.88;;
34982;SDS011;21187;50.976;13.720;2024-01-30T22:57:53;43.03;;;15.15;;
34982;SDS011;21187;50.976;13.720;2024-01-30T23:02:55;48.92;;;15.35;;
34982;SDS011;21187;50.976;13.720;2024-01-30T23:07:58;43.85;;;14.25;;
34982;SDS011;21187;50.976;13.720;2024-01-30T23:13:00;39.80;;;14.82;;
34982;SDS011;21187;50.976;13.720;2024-01-30T23:18:02;36.67;;;14.90;;
34982;SDS011;21187;50.976;13.720;2024-01-30T23:23:06;32.88;;;12.93;;
34982;SDS011;21187;50.976;13.720;2024-01-30T23:28:09;25.08;;;9.15;;
34982;SDS011;21187;50.976;13.720;2024-01-30T23:33:12;13.32;;;6.70;;
34982;SDS011;21187;50.976;13.720;2024-01-30T23:38:14;13.90;;;7.03;;
34982;SDS011;21187;50.976;13.720;2024-01-30T23:43:16;20.67;;;7.10;;
34982;SDS011;21187;50.976;13.720;2024-01-30T23:48:18;14.15;;;7.20;;
34982;SDS011;21187;50.976;13.720;2024-01-30T23:53:20;17.10;;;6.10;;
34982;SDS011;21187;50.976;13.720;2024-01-30T23:58:22;14.90;;;6.07;;
